Time,TemperatureF,DewpointF,PressureIn,WindDirection,WindDirectionDegrees,WindSpeedMPH,WindSpeedGustMPH,Humidity,HourlyPrecipIn,Conditions,Clouds,dailyrainin,SoftwareType,DateUTC
2013-11-02 00:00:00,51.7,44.0,29.79,WSW,250,0.0,5.0,74,0.00,,,0.10,weatherlink.com 1.10,2013-11-02 04:00:00,
2013-11-02 00:16:00,51.8,43.0,29.78,NW,305,3.0,7.0,72,0.00,,,0.00,weatherlink.com 1.10,2013-11-02 04:16:00,
2013-11-02 00:33:00,51.2,42.0,29.77,WSW,249,1.0,4.0,72,0.00,,,0.00,weatherlink.com 1.10,2013-11-02 04:33:00,
2013-11-02 00:47:00,51.0,42.0,29.77,West,273,1.0,10.0,71,0.00,,,0.00,weatherlink.com 1.10,2013-11-02 04:47:00,
2013-11-02 01:12:00,50.8,41.0,29.77,North,9,2.0,5.0,70,0.00,,,0.00,weatherlink.com 1.10,2013-11-02 05:12:00,
2013-11-02 01:15:00,50.7,41.0,29.77,WSW,257,1.0,5.0,70,0.00,,,0.00,weatherlink.com 1.10,2013-11-02 05:15:00,
2013-11-02 01:31:00,50.2,41.0,29.76,WSW,239,0.0,7.0,71,0.00,,,0.00,weatherlink.com 1.10,2013-11-02 05:31:00,
2013-11-02 01:45:00,49.9,40.0,29.77,SW,230,1.0,8.0,70,0.00,,,0.00,weatherlink.com 1.10,2013-11-02 05:45:00,
2013-11-02 02:00:00,49.8,40.0,29.77,WNW,288,1.0,5.0,69,0.00,,,0.00,weatherlink.com 1.10,2013-11-02 06:00:00,
2013-11-02 02:15:00,49.7,39.0,29.77,SSW,207,7.0,7.0,67,0.00,,,0.00,weatherlink.com 1.10,2013-11-02 06:15:00,
2013-11-02 02:31:00,49.6,39.0,29.78,SW,233,1.0,8.0,68,0.00,,,0.00,weatherlink.com 1.10,2013-11-02 06:31:00,
2013-11-02 02:46:00,49.7,39.0,29.78,WSW,257,2.0,10.0,66,0.00,,,0.00,weatherlink.com 1.10,2013-11-02 06:46:00,
2013-11-02 03:01:00,49.6,39.0,29.78,WSW,257,1.0,12.0,66,0.00,,,0.00,weatherlink.com 1.10,2013-11-02 07:01:00,
2013-11-02 03:16:00,49.6,39.0,29.77,West,262,1.0,10.0,66,0.00,,,0.00,weatherlink.com 1.10,2013-11-02 07:16:00,
2013-11-02 03:31:00,49.4,38.0,29.77,SSW,207,1.0,6.0,65,0.00,,,0.00,weatherlink.com 1.10,2013-11-02 07:31:00,
2013-11-02 03:46:00,49.6,38.0,29.77,WSW,257,0.0,11.0,64,0.00,,,0.00,weatherlink.com 1.10,2013-11-02 07:46:00,
2013-11-02 04:01:00,49.6,38.0,29.77,NW,319,5.0,8.0,64,0.00,,,0.00,weatherlink.com 1.10,2013-11-02 08:01:00,
2013-11-02 04:16:00,50.0,38.0,29.77,ENE,60,5.0,11.0,63,0.00,,,0.00,weatherlink.com 1.10,2013-11-02 08:16:00,
2013-11-02 04:31:00,49.9,38.0,29.77,SSW,203,1.0,11.0,64,0.00,,,0.00,weatherlink.com 1.10,2013-11-02 08:31:00,
2013-11-02 04:46:00,49.6,39.0,29.77,WSW,255,4.0,9.0,66,0.00,,,0.00,weatherlink.com 1.10,2013-11-02 08:46:00,
2013-11-02 05:01:00,49.8,39.0,29.77,West,278,4.0,16.0,66,0.00,,,0.00,weatherlink.com 1.10,2013-11-02 09:01:00,
2013-11-02 05:16:00,49.2,39.0,29.77,West,278,1.0,13.0,68,0.00,,,0.00,weatherlink.com 1.10,2013-11-02 09:16:00,
2013-11-02 05:31:00,49.2,39.0,29.77,NNW,345,2.0,9.0,68,0.00,,,0.00,weatherlink.com 1.10,2013-11-02 09:31:00,
2013-11-02 05:46:00,48.6,39.0,29.77,NE,53,1.0,6.0,70,0.00,,,0.00,weatherlink.com 1.10,2013-11-02 09:46:00,
2013-11-02 06:01:00,48.3,39.0,29.78,NW,304,2.0,11.0,71,0.00,,,0.00,weatherlink.com 1.10,2013-11-02 10:01:00,
2013-11-02 06:18:00,47.7,39.0,29.78,NE,35,0.0,4.0,73,0.00,,,0.00,weatherlink.com 1.10,2013-11-02 10:18:00,
2013-11-02 06:36:00,47.1,40.0,29.78,SE,138,3.0,5.0,75,0.00,,,0.00,weatherlink.com 1.10,2013-11-02 10:36:00,
2013-11-02 06:46:00,47.0,39.0,29.78,NNW,330,0.0,11.0,75,0.00,,,0.00,weatherlink.com 1.10,2013-11-02 10:46:00,
2013-11-02 07:02:00,46.7,40.0,29.78,WSW,254,2.0,6.0,76,0.00,,,0.00,weatherlink.com 1.10,2013-11-02 11:02:00,
2013-11-02 07:17:00,46.4,40.0,29.78,South,188,1.0,5.0,77,0.00,,,0.00,weatherlink.com 1.10,2013-11-02 11:17:00,
2013-11-02 07:31:00,46.4,40.0,29.79,SW,234,2.0,8.0,77,0.00,,,0.00,weatherlink.com 1.10,2013-11-02 11:31:00,
2013-11-02 07:46:00,46.1,40.0,29.79,West,271,1.0,8.0,78,0.00,,,0.00,weatherlink.com 1.10,2013-11-02 11:46:00,
2013-11-02 08:02:00,45.7,39.0,29.80,WNW,283,3.0,9.0,78,0.00,,,0.00,weatherlink.com 1.10,2013-11-02 12:02:00,
2013-11-02 08:17:00,45.7,39.0,29.80,SW,222,2.0,4.0,78,0.00,,,0.00,weatherlink.com 1.10,2013-11-02 12:17:00,
2013-11-02 08:32:00,46.1,39.0,29.81,SW,226,2.0,7.0,77,0.00,,,0.00,weatherlink.com 1.10,2013-11-02 12:32:00,
2013-11-02 08:47:00,46.4,39.0,29.81,WSW,250,5.0,9.0,76,0.00,,,0.00,weatherlink.com 1.10,2013-11-02 12:47:00,
2013-11-02 09:02:00,46.9,39.0,29.81,WSW,252,4.0,9.0,74,0.00,,,0.00,weatherlink.com 1.10,2013-11-02 13:02:00,
2013-11-02 09:17:00,47.3,40.0,29.82,NW,305,2.0,14.0,75,0.00,,,0.00,weatherlink.com 1.10,2013-11-02 13:17:00,
2013-11-02 09:32:00,48.1,40.0,29.81,South,184,1.0,9.0,73,0.00,,,0.00,weatherlink.com 1.10,2013-11-02 13:32:00,
2013-11-02 09:51:00,50.2,40.0,29.82,North,6,3.0,7.0,69,0.00,,,0.00,weatherlink.com 1.10,2013-11-02 13:51:00,
2013-11-02 10:02:00,51.6,40.0,29.82,WNW,297,0.0,8.0,64,0.00,,,0.00,weatherlink.com 1.10,2013-11-02 14:02:00,
2013-11-02 10:17:00,52.8,39.0,29.83,SW,233,1.0,8.0,61,0.00,,,0.00,weatherlink.com 1.10,2013-11-02 14:17:00,
2013-11-02 10:32:00,52.6,38.0,29.83,WSW,241,5.0,11.0,59,0.00,,,0.00,weatherlink.com 1.10,2013-11-02 14:32:00,
2013-11-02 10:47:00,51.3,39.0,29.83,SW,233,4.0,9.0,63,0.00,,,0.00,weatherlink.com 1.10,2013-11-02 14:47:00,
2013-11-02 11:02:00,51.3,39.0,29.83,ESE,117,7.0,9.0,64,0.00,,,0.00,weatherlink.com 1.10,2013-11-02 15:02:00,
2013-11-02 11:17:00,52.6,40.0,29.84,WSW,238,1.0,9.0,62,0.00,,,0.00,weatherlink.com 1.10,2013-11-02 15:17:00,
2013-11-02 11:32:00,53.9,39.0,29.84,South,183,0.0,8.0,58,0.00,,,0.00,weatherlink.com 1.10,2013-11-02 15:32:00,
2013-11-02 11:47:00,54.2,39.0,29.84,NNE,24,1.0,8.0,56,0.00,,,0.00,weatherlink.com 1.10,2013-11-02 15:47:00,
2013-11-02 12:02:00,54.4,39.0,29.84,West,264,1.0,9.0,56,0.00,,,0.00,weatherlink.com 1.10,2013-11-02 16:02:00,
2013-11-02 12:17:00,54.7,38.0,29.84,SW,224,3.0,8.0,53,0.00,,,0.00,weatherlink.com 1.10,2013-11-02 16:17:00,
2013-11-02 12:32:00,55.3,37.0,29.84,SW,228,1.0,9.0,51,0.00,,,0.00,weatherlink.com 1.10,2013-11-02 16:32:00,
2013-11-02 12:47:00,56.3,37.0,29.84,WNW,293,4.0,13.0,48,0.00,,,0.00,weatherlink.com 1.10,2013-11-02 16:47:00,
2013-11-02 13:02:00,53.5,37.0,29.84,WSW,238,10.0,12.0,54,0.00,,,0.00,weatherlink.com 1.10,2013-11-02 17:02:00,
2013-11-02 13:17:00,53.4,38.0,29.83,North,11,1.0,12.0,56,0.00,,,0.00,weatherlink.com 1.10,2013-11-02 17:17:00,
2013-11-02 13:33:00,52.7,36.0,29.82,WSW,247,3.0,16.0,54,0.00,,,0.00,weatherlink.com 1.10,2013-11-02 17:33:00,
2013-11-02 13:47:00,53.9,37.0,29.82,West,277,2.0,17.0,53,0.00,,,0.00,weatherlink.com 1.10,2013-11-02 17:47:00,
2013-11-02 14:02:00,52.6,38.0,29.81,SW,215,3.0,14.0,57,0.00,,,0.00,weatherlink.com 1.10,2013-11-02 18:02:00,
2013-11-02 14:17:00,50.0,41.0,29.82,SW,221,0.0,11.0,70,0.00,,,0.00,weatherlink.com 1.10,2013-11-02 18:17:00,
2013-11-02 14:32:00,49.7,40.0,29.82,SW,219,0.0,5.0,70,0.00,,,0.00,weatherlink.com 1.10,2013-11-02 18:32:00,
2013-11-02 14:47:00,51.3,41.0,29.81,SE,134,1.0,3.0,67,0.00,,,0.00,weatherlink.com 1.10,2013-11-02 18:47:00,
2013-11-02 15:02:00,50.7,37.0,29.82,NW,304,2.0,11.0,60,0.00,,,0.00,weatherlink.com 1.10,2013-11-02 19:02:00,
2013-11-02 15:17:00,50.5,37.0,29.81,NNE,25,3.0,16.0,61,0.00,,,0.00,weatherlink.com 1.10,2013-11-02 19:17:00,
2013-11-02 15:32:00,48.8,37.0,29.82,SW,233,0.0,15.0,65,0.00,,,0.00,weatherlink.com 1.10,2013-11-02 19:32:00,
2013-11-02 15:47:00,48.3,39.0,29.82,NE,44,0.0,7.0,71,0.00,,,0.00,weatherlink.com 1.10,2013-11-02 19:47:00,
2013-11-02 16:03:00,49.1,38.0,29.82,SSW,208,0.0,7.0,66,0.00,,,0.00,weatherlink.com 1.10,2013-11-02 20:03:00,
2013-11-02 16:17:00,50.5,38.0,29.82,WSW,237,1.0,10.0,62,0.00,,,0.00,weatherlink.com 1.10,2013-11-02 20:17:00,
2013-11-02 16:32:00,49.9,36.0,29.82,West,262,2.0,6.0,60,0.00,,,0.00,weatherlink.com 1.10,2013-11-02 20:32:00,
2013-11-02 16:47:00,50.1,37.0,29.82,SSE,158,2.0,6.0,60,0.00,,,0.00,weatherlink.com 1.10,2013-11-02 20:47:00,
2013-11-02 17:02:00,50.8,36.0,29.82,SW,223,2.0,11.0,57,0.00,,,0.00,weatherlink.com 1.10,2013-11-02 21:02:00,
2013-11-02 17:18:00,50.5,34.0,29.82,WSW,238,0.0,16.0,53,0.00,,,0.00,weatherlink.com 1.10,2013-11-02 21:18:00,
2013-11-02 17:33:00,50.0,34.0,29.83,West,276,2.0,12.0,55,0.00,,,0.00,weatherlink.com 1.10,2013-11-02 21:33:00,
2013-11-02 17:48:00,48.7,34.0,29.83,SW,217,0.0,8.0,57,0.00,,,0.00,weatherlink.com 1.10,2013-11-02 21:48:00,
2013-11-02 18:03:00,47.5,33.0,29.84,South,169,1.0,7.0,57,0.00,,,0.00,weatherlink.com 1.10,2013-11-02 22:03:00,
2013-11-02 18:18:00,46.4,32.0,29.85,NNE,13,2.0,9.0,58,0.00,,,0.00,weatherlink.com 1.10,2013-11-02 22:18:00,
2013-11-02 18:33:00,45.6,32.0,29.85,WNW,290,1.0,8.0,59,0.00,,,0.00,weatherlink.com 1.10,2013-11-02 22:33:00,
2013-11-02 18:48:00,45.2,33.0,29.86,West,269,1.0,12.0,62,0.00,,,0.00,weatherlink.com 1.10,2013-11-02 22:48:00,
2013-11-02 19:03:00,44.7,33.0,29.86,West,276,1.0,9.0,63,0.00,,,0.00,weatherlink.com 1.10,2013-11-02 23:03:00,
2013-11-02 19:19:00,44.3,33.0,29.86,WNW,291,1.0,8.0,64,0.00,,,0.00,weatherlink.com 1.10,2013-11-02 23:19:00,
2013-11-02 19:48:00,44.3,34.0,29.87,WSW,255,0.0,12.0,66,0.00,,,0.00,weatherlink.com 1.10,2013-11-02 23:48:00,
2013-11-02 20:18:00,43.5,34.0,29.88,NNE,21,2.0,9.0,69,0.00,,,0.00,weatherlink.com 1.10,2013-11-03 00:18:00,
2013-11-02 20:33:00,43.6,34.0,29.89,South,186,5.0,12.0,68,0.00,,,0.00,weatherlink.com 1.10,2013-11-03 00:33:00,
2013-11-02 20:48:00,43.6,34.0,29.89,ENE,58,2.0,8.0,68,0.00,,,0.00,weatherlink.com 1.10,2013-11-03 00:48:00,
2013-11-02 21:03:00,43.5,34.0,29.90,West,264,2.0,9.0,68,0.00,,,0.00,weatherlink.com 1.10,2013-11-03 01:03:00,
2013-11-02 21:18:00,43.5,34.0,29.91,SE,140,3.0,10.0,68,0.00,,,0.00,weatherlink.com 1.10,2013-11-03 01:18:00,
2013-11-02 21:33:00,43.6,34.0,29.91,NW,317,2.0,16.0,68,0.00,,,0.00,weatherlink.com 1.10,2013-11-03 01:33:00,
2013-11-02 21:48:00,43.3,34.0,29.91,NW,308,2.0,9.0,69,0.00,,,0.00,weatherlink.com 1.10,2013-11-03 01:48:00,
2013-11-02 22:03:00,43.2,34.0,29.91,NNE,27,2.0,10.0,69,0.00,,,0.00,weatherlink.com 1.10,2013-11-03 02:03:00,
2013-11-02 22:18:00,43.1,34.0,29.92,NNE,20,2.0,11.0,69,0.00,,,0.00,weatherlink.com 1.10,2013-11-03 02:18:00,
2013-11-02 22:33:00,42.8,33.0,29.92,NW,309,3.0,13.0,68,0.00,,,0.00,weatherlink.com 1.10,2013-11-03 02:33:00,
2013-11-02 22:48:00,42.7,33.0,29.93,NW,321,1.0,10.0,69,0.00,,,0.00,weatherlink.com 1.10,2013-11-03 02:48:00,
2013-11-02 23:03:00,42.2,33.0,29.93,ESE,116,2.0,10.0,70,0.00,,,0.00,weatherlink.com 1.10,2013-11-03 03:03:00,
2013-11-02 23:18:00,41.8,33.0,29.93,NNW,343,3.0,11.0,72,0.00,,,0.00,weatherlink.com 1.10,2013-11-03 03:18:00,
2013-11-02 23:34:00,41.5,33.0,29.94,NW,318,3.0,11.0,73,0.00,,,0.00,weatherlink.com 1.10,2013-11-03 03:34:00,
2013-11-02 23:48:00,41.4,33.0,29.94,North,359,1.0,10.0,73,0.00,,,0.00,weatherlink.com 1.10,2013-11-03 03:48:00,